createdAt,value
2023-05-05T00:00:22.170Z,59.53
2023-05-05T00:03:11.140Z,57.84
2023-05-05T00:05:40.611Z,57.89
2023-05-05T00:08:10.769Z,59.03
2023-05-05T00:10:39.913Z,61.45
2023-05-05T00:13:08.709Z,59.72
2023-05-05T00:15:37.995Z,59.23
2023-05-05T00:18:06.995Z,60.06
2023-05-05T00:20:36.254Z,61.17
2023-05-05T00:23:05.162Z,58.99
2023-05-05T00:25:35.742Z,58.82
2023-05-05T00:28:04.733Z,59.62
2023-05-05T00:30:34.378Z,61.60
2023-05-05T00:33:03.374Z,58.89
2023-05-05T00:35:32.860Z,61.05
2023-05-05T00:38:01.733Z,59.92
2023-05-05T00:40:31.001Z,62.80
2023-05-05T00:43:01.119Z,62.35
2023-05-05T00:45:31.272Z,60.04
2023-05-05T00:48:01.191Z,61.83
2023-05-05T00:50:31.221Z,61.38
2023-05-05T00:53:02.849Z,60.80
2023-05-05T00:55:32.589Z,60.83
2023-05-05T00:58:04.065Z,61.50
2023-05-05T01:00:33.474Z,60.47
2023-05-05T01:03:03.298Z,62.08
2023-05-05T01:05:38.433Z,61.54
2023-05-05T01:08:14.771Z,60.95
2023-05-05T01:10:46.693Z,61.62
2023-05-05T01:13:22.499Z,61.03
2023-05-05T01:15:54.513Z,60.02
2023-05-05T01:18:30.133Z,59.52
2023-05-05T01:21:03.209Z,60.77
2023-05-05T01:23:44.760Z,61.81
2023-05-05T01:26:22.832Z,59.86
2023-05-05T01:29:02.496Z,59.69
2023-05-05T01:31:43.713Z,61.58
2023-05-05T01:34:16.672Z,59.46
2023-05-05T01:36:50.799Z,60.29
2023-05-05T01:39:21.121Z,60.88
2023-05-05T01:41:52.279Z,59.69
2023-05-05T01:44:21.735Z,60.36
2023-05-05T01:46:53.266Z,60.43
2023-05-05T01:49:22.433Z,60.77
2023-05-05T01:51:52.749Z,61.13
2023-05-05T01:54:23.824Z,60.79
2023-05-05T01:56:54.026Z,60.47
2023-05-05T01:59:24.511Z,60.82
2023-05-05T02:01:56.409Z,61.46
2023-05-05T02:04:26.025Z,60.67
2023-05-05T02:06:57.035Z,60.44
2023-05-05T02:09:26.660Z,60.09
2023-05-05T02:11:57.959Z,59.49
2023-05-05T02:14:29.936Z,59.10
2023-05-05T02:17:01.510Z,59.43
2023-05-05T02:19:31.558Z,60.82
2023-05-05T02:22:01.003Z,59.82
2023-05-05T02:24:30.926Z,58.99
2023-05-05T02:27:01.089Z,61.49
2023-05-05T02:29:32.390Z,60.80
2023-05-05T02:32:05.269Z,61.59
2023-05-05T02:34:36.546Z,60.45
2023-05-05T02:37:09.875Z,61.94
2023-05-05T02:39:43.728Z,62.33
2023-05-05T02:42:19.698Z,61.20
2023-05-05T02:44:51.954Z,61.25
2023-05-05T02:47:23.293Z,60.67
2023-05-05T02:49:54.081Z,61.51
2023-05-05T02:52:23.346Z,60.53
2023-05-05T02:54:52.575Z,60.10
2023-05-05T02:57:27.731Z,60.32
2023-05-05T03:00:06.871Z,59.57
2023-05-05T03:02:46.102Z,59.80
2023-05-05T03:05:19.732Z,58.07
2023-05-05T03:07:51.988Z,59.89
2023-05-05T03:10:22.594Z,58.80
2023-05-05T03:12:56.328Z,59.52
2023-05-05T03:15:32.624Z,58.94
2023-05-05T03:18:05.164Z,60.12
2023-05-05T03:20:34.738Z,58.95
2023-05-05T03:23:09.033Z,58.65
2023-05-05T03:25:45.012Z,58.51
2023-05-05T03:28:20.556Z,57.81
2023-05-05T03:30:49.550Z,58.76
2023-05-05T03:33:21.904Z,58.49
2023-05-05T03:35:50.944Z,58.12
2023-05-05T03:38:21.101Z,58.74
2023-05-05T03:40:50.244Z,57.40
2023-05-05T03:43:22.917Z,58.37
2023-05-05T03:45:51.731Z,57.83
2023-05-05T03:48:23.097Z,57.07
2023-05-05T03:50:54.010Z,57.50
2023-05-05T03:53:25.542Z,57.30
2023-05-05T03:55:54.466Z,57.26
2023-05-05T03:58:23.647Z,57.37
2023-05-05T04:00:52.683Z,56.90
2023-05-05T04:03:24.458Z,57.27
2023-05-05T04:05:54.050Z,56.76
2023-05-05T04:08:24.058Z,56.56
2023-05-05T04:10:53.064Z,56.38
2023-05-05T04:13:22.854Z,55.86
2023-05-05T04:15:52.060Z,55.94
2023-05-05T04:18:22.112Z,55.49
2023-05-05T04:20:53.446Z,55.66
2023-05-05T04:23:22.611Z,55.29
2023-05-05T04:25:52.075Z,55.17
2023-05-05T04:28:22.135Z,54.98
2023-05-05T04:30:51.620Z,54.47
2023-05-05T04:33:20.793Z,54.44
2023-05-05T04:35:51.539Z,54.22
2023-05-05T04:38:22.821Z,54.30
2023-05-05T04:40:51.964Z,53.90
2023-05-05T04:43:21.033Z,53.36
2023-05-05T04:45:53.454Z,53.31
2023-05-05T04:48:24.535Z,53.31
2023-05-05T04:50:54.020Z,53.05
2023-05-05T04:53:24.457Z,53.14
2023-05-05T04:55:53.280Z,52.71
2023-05-05T04:58:22.360Z,51.68
2023-05-05T05:00:51.200Z,51.87
2023-05-05T05:03:21.389Z,51.60
2023-05-05T05:05:50.468Z,51.30
2023-05-05T05:08:19.752Z,50.69
2023-05-05T05:10:49.985Z,50.40
2023-05-05T05:13:19.488Z,50.40
2023-05-05T05:15:48.486Z,50.36
2023-05-05T05:18:17.565Z,50.18
2023-05-05T05:20:47.179Z,50.69
2023-05-05T05:23:16.807Z,50.64
2023-05-05T05:25:46.582Z,49.96
2023-05-05T05:28:19.364Z,49.58
2023-05-05T05:30:53.185Z,49.86
2023-05-05T05:33:23.042Z,49.71
2023-05-05T05:35:52.979Z,49.06
2023-05-05T05:38:23.656Z,49.78
2023-05-05T05:40:55.639Z,49.54
2023-05-05T05:43:27.206Z,48.74
2023-05-05T05:45:56.171Z,48.41
2023-05-05T05:48:28.540Z,49.02
2023-05-05T05:50:58.230Z,48.65
2023-05-05T05:53:28.031Z,48.11
2023-05-05T05:55:57.387Z,48.58
2023-05-05T05:58:27.997Z,47.87
2023-05-05T06:00:59.164Z,47.35
2023-05-05T06:03:28.949Z,46.90
2023-05-05T06:05:59.042Z,46.72
2023-05-05T06:08:28.529Z,47.08
2023-05-05T06:11:00.613Z,47.04
2023-05-05T06:13:31.363Z,47.07
2023-05-05T06:16:00.424Z,46.28
2023-05-05T06:18:29.876Z,47.19
2023-05-05T06:20:58.815Z,46.42
2023-05-05T06:23:30.056Z,45.45
2023-05-05T06:26:03.970Z,46.36
2023-05-05T06:28:34.380Z,47.08
2023-05-05T06:31:03.675Z,45.94
2023-05-05T06:33:33.059Z,46.92
2023-05-05T06:36:01.964Z,46.95
2023-05-05T06:38:31.094Z,46.38
2023-05-05T06:40:59.928Z,46.07
2023-05-05T06:43:29.782Z,45.90
2023-05-05T06:46:03.083Z,45.86
2023-05-05T06:48:32.605Z,46.55
2023-05-05T06:51:01.622Z,45.94
2023-05-05T06:53:30.873Z,46.39
2023-05-05T06:55:59.757Z,46.15
2023-05-05T06:58:28.883Z,46.30
2023-05-05T07:00:57.889Z,46.51
2023-05-05T07:03:29.830Z,46.71
2023-05-05T07:05:58.651Z,46.66
2023-05-05T07:08:27.906Z,46.37
2023-05-05T07:10:56.829Z,46.52
2023-05-05T07:13:25.838Z,46.33
2023-05-05T07:15:54.689Z,45.68
2023-05-05T07:18:23.898Z,45.89
2023-05-05T07:20:54.029Z,45.85
2023-05-05T07:23:23.153Z,45.13
2023-05-05T07:25:51.992Z,45.30
2023-05-05T07:28:22.411Z,45.09
2023-05-05T07:30:52.108Z,44.92
2023-05-05T07:33:21.261Z,43.72
2023-05-05T07:35:50.133Z,43.72
2023-05-05T07:38:20.698Z,44.27
2023-05-05T07:40:49.553Z,45.44
2023-05-05T07:43:18.672Z,45.75
2023-05-05T07:45:47.678Z,46.13
2023-05-05T07:48:16.749Z,45.63
2023-05-05T07:50:45.656Z,46.65
2023-05-05T07:53:15.371Z,47.27
2023-05-05T07:55:45.682Z,47.06
2023-05-05T07:58:14.810Z,47.01
2023-05-05T08:00:44.166Z,47.07
2023-05-05T08:03:13.435Z,47.46
2023-05-05T08:05:42.246Z,47.30
2023-05-05T08:08:11.461Z,48.04
2023-05-05T08:10:40.203Z,48.00
2023-05-05T08:13:10.671Z,48.36
2023-05-05T08:15:39.727Z,49.08
2023-05-05T08:18:08.863Z,49.79
2023-05-05T08:20:38.104Z,49.92
2023-05-05T08:23:07.278Z,49.82
2023-05-05T08:25:36.086Z,49.77
2023-05-05T08:28:05.344Z,49.90
2023-05-05T08:30:35.698Z,49.80
2023-05-05T08:33:04.995Z,49.77
2023-05-05T08:35:33.785Z,49.98
2023-05-05T08:38:02.856Z,50.38
2023-05-05T08:40:34.205Z,50.36
2023-05-05T08:43:04.067Z,50.08
2023-05-05T08:45:33.312Z,50.10
2023-05-05T08:48:05.054Z,50.49
2023-05-05T08:50:34.576Z,50.08
2023-05-05T08:53:09.329Z,50.30
2023-05-05T08:55:42.826Z,50.10
2023-05-05T08:58:12.109Z,49.86
2023-05-05T09:00:42.659Z,50.28
2023-05-05T09:03:13.822Z,50.23
2023-05-05T09:05:43.380Z,49.58
2023-05-05T09:08:12.647Z,49.69
2023-05-05T09:10:42.117Z,49.99
2023-05-05T09:13:11.375Z,49.79
2023-05-05T09:15:42.657Z,49.60
2023-05-05T09:18:13.497Z,49.71
2023-05-05T09:20:42.427Z,50.21
2023-05-05T09:23:12.119Z,50.05
2023-05-05T09:25:41.370Z,49.91
2023-05-05T09:28:11.470Z,49.95
2023-05-05T09:30:40.952Z,49.80
2023-05-05T09:33:10.257Z,49.99
2023-05-05T09:35:53.487Z,49.46
2023-05-05T09:38:24.340Z,49.03
2023-05-05T09:40:53.859Z,49.39
2023-05-05T09:43:24.186Z,48.78
2023-05-05T09:45:53.027Z,49.35
2023-05-05T09:48:26.442Z,49.07
2023-05-05T09:50:57.042Z,48.94
2023-05-05T09:53:27.312Z,49.04
2023-05-05T09:55:56.627Z,48.90
2023-05-05T09:58:26.404Z,48.59
2023-05-05T10:00:55.787Z,48.46
2023-05-05T10:03:25.497Z,48.59
2023-05-05T10:05:57.733Z,48.52
2023-05-05T10:08:27.910Z,48.25
2023-05-05T10:10:59.620Z,48.26
2023-05-05T10:13:28.909Z,48.07
2023-05-05T10:15:58.518Z,48.28
2023-05-05T10:18:28.558Z,48.11
2023-05-05T10:20:59.870Z,48.31
2023-05-05T10:23:35.404Z,47.88
2023-05-05T10:26:06.772Z,48.14
2023-05-05T10:28:38.456Z,47.99
2023-05-05T10:31:23.856Z,48.36
2023-05-05T10:33:56.023Z,48.17
2023-05-05T10:36:27.979Z,47.51
2023-05-05T10:38:58.326Z,47.50
2023-05-05T10:41:27.342Z,46.90
2023-05-05T10:43:57.663Z,47.34
2023-05-05T10:46:27.935Z,47.81
2023-05-05T10:49:00.841Z,47.69
2023-05-05T10:51:40.652Z,47.28
2023-05-05T10:54:15.092Z,47.62
2023-05-05T10:56:44.085Z,47.18
2023-05-05T10:59:31.538Z,47.04
2023-05-05T11:02:00.524Z,47.24
2023-05-05T11:04:31.117Z,47.03
2023-05-05T11:07:18.895Z,47.30
2023-05-05T11:10:01.901Z,47.33
2023-05-05T11:12:33.794Z,47.16
2023-05-05T11:15:24.485Z,46.86
2023-05-05T11:17:56.304Z,46.80
2023-05-05T11:20:41.197Z,46.32
2023-05-05T11:23:25.500Z,46.03
2023-05-05T11:25:57.844Z,46.38
2023-05-05T11:28:29.870Z,46.02
2023-05-05T11:31:18.683Z,46.03
2023-05-05T11:33:47.851Z,46.44
2023-05-05T11:36:18.813Z,46.17
2023-05-05T11:39:05.524Z,46.46
2023-05-05T11:41:47.080Z,46.52
2023-05-05T11:44:18.475Z,46.52
2023-05-05T11:47:17.840Z,46.48
2023-05-05T11:49:47.526Z,46.38
2023-05-05T11:52:16.709Z,45.65
2023-05-05T11:54:48.746Z,46.04
2023-05-05T11:57:21.893Z,45.52
2023-05-05T11:59:52.912Z,45.30
2023-05-05T12:02:22.850Z,45.60
2023-05-05T12:04:52.677Z,44.88
2023-05-05T12:07:22.597Z,45.25
2023-05-05T12:09:52.548Z,44.97
2023-05-05T12:12:34.201Z,44.69
2023-05-05T12:15:05.140Z,44.66
2023-05-05T12:17:38.799Z,45.06
2023-05-05T12:20:10.334Z,45.08
2023-05-05T12:22:40.411Z,44.28
2023-05-05T12:25:11.314Z,44.60
2023-05-05T12:27:42.641Z,44.41
2023-05-05T12:30:14.780Z,44.03
2023-05-05T12:32:44.760Z,44.17
2023-05-05T12:35:14.548Z,44.13
2023-05-05T12:37:44.171Z,43.85
2023-05-05T12:40:31.943Z,43.78
2023-05-05T12:43:02.632Z,44.54
2023-05-05T12:45:31.575Z,43.46
2023-05-05T12:48:01.989Z,43.13
2023-05-05T12:50:31.300Z,42.84
2023-05-05T12:53:00.994Z,42.48
2023-05-05T12:55:40.134Z,42.44
2023-05-05T12:58:11.685Z,42.45
2023-05-05T13:00:41.411Z,42.79
2023-05-05T13:03:19.931Z,42.74
2023-05-05T13:05:49.058Z,42.47
2023-05-05T13:08:20.903Z,42.04
2023-05-05T13:10:59.265Z,42.08
2023-05-05T13:13:32.866Z,41.95
2023-05-05T13:16:01.797Z,42.13
2023-05-05T13:18:30.835Z,41.62
2023-05-05T13:20:59.695Z,41.27
2023-05-05T13:23:28.879Z,41.74
2023-05-05T13:25:57.757Z,42.25
2023-05-05T13:28:29.586Z,41.48
2023-05-05T13:30:59.385Z,41.79
2023-05-05T13:33:30.785Z,41.44
2023-05-05T13:35:59.616Z,41.37
2023-05-05T13:38:31.135Z,41.70
2023-05-05T13:41:00.314Z,41.66
2023-05-05T13:43:30.739Z,41.66
2023-05-05T13:46:12.319Z,41.84
2023-05-05T13:48:48.106Z,41.05
2023-05-05T13:51:17.671Z,40.34
2023-05-05T13:53:47.667Z,40.48
2023-05-05T13:56:18.141Z,41.66
2023-05-05T13:58:51.255Z,40.17
2023-05-05T14:01:20.328Z,39.88
2023-05-05T14:03:49.383Z,39.61
2023-05-05T14:06:18.666Z,39.70
2023-05-05T14:08:47.755Z,39.14
2023-05-05T14:11:18.569Z,38.84
2023-05-05T14:13:50.207Z,38.99
2023-05-05T14:16:19.108Z,39.77
2023-05-05T14:18:48.195Z,37.36
2023-05-05T14:21:17.258Z,37.97
2023-05-05T14:23:46.570Z,38.02
2023-05-05T14:26:16.717Z,39.26
2023-05-05T14:28:48.990Z,36.12
2023-05-05T14:31:27.527Z,36.61
2023-05-05T14:33:57.813Z,35.21
2023-05-05T14:36:26.874Z,34.18
2023-05-05T14:38:56.040Z,32.01
2023-05-05T14:41:25.153Z,32.73
2023-05-05T14:43:54.155Z,36.60
2023-05-05T14:46:24.460Z,33.84
2023-05-05T14:48:53.792Z,32.53
2023-05-05T14:51:23.536Z,33.61
2023-05-05T14:53:52.685Z,31.94
2023-05-05T14:56:21.940Z,33.46
2023-05-05T14:58:51.343Z,32.10
2023-05-05T15:01:20.665Z,32.49
2023-05-05T15:03:52.099Z,32.90
2023-05-05T15:06:22.160Z,33.84
2023-05-05T15:08:51.400Z,33.14
2023-05-05T15:11:20.268Z,33.46
2023-05-05T15:13:49.428Z,33.17
2023-05-05T15:16:18.717Z,33.50
2023-05-05T15:18:48.005Z,33.47
2023-05-05T15:21:19.601Z,33.31
2023-05-05T15:23:50.013Z,31.71
2023-05-05T15:26:18.952Z,32.46
2023-05-05T15:28:50.494Z,31.79
2023-05-05T15:31:19.576Z,32.28
2023-05-05T15:33:51.137Z,32.20
2023-05-05T15:36:22.745Z,31.83
2023-05-05T15:38:51.999Z,30.34
2023-05-05T15:41:20.858Z,31.31
2023-05-05T15:43:52.553Z,30.56
2023-05-05T15:46:21.576Z,31.07
2023-05-05T15:48:50.729Z,30.67
2023-05-05T15:51:19.488Z,29.76
2023-05-05T15:53:54.384Z,28.64
2023-05-05T15:56:23.719Z,28.85
2023-05-05T15:58:52.760Z,29.13
2023-05-05T16:01:22.163Z,29.19
2023-05-05T16:03:51.837Z,28.79
2023-05-05T16:06:20.706Z,29.02
2023-05-05T16:08:52.432Z,31.37
2023-05-05T16:11:22.523Z,30.47
2023-05-05T16:13:51.700Z,30.48
2023-05-05T16:16:20.474Z,29.85
2023-05-05T16:18:50.122Z,30.04
2023-05-05T16:21:19.165Z,31.40
2023-05-05T16:23:48.578Z,30.93
2023-05-05T16:26:19.099Z,31.81
2023-05-05T16:28:48.622Z,31.89
2023-05-05T16:31:17.546Z,31.45
2023-05-05T16:33:46.740Z,32.07
2023-05-05T16:36:16.055Z,32.60
2023-05-05T16:38:45.114Z,32.68
2023-05-05T16:41:14.020Z,32.95
2023-05-05T16:43:44.506Z,32.38
2023-05-05T16:46:16.369Z,33.29
2023-05-05T16:48:46.852Z,33.60
2023-05-05T16:51:15.553Z,34.12
2023-05-05T16:53:44.568Z,34.54
2023-05-05T16:56:13.817Z,35.30
2023-05-05T16:58:44.239Z,35.53
2023-05-05T17:01:13.126Z,36.24
2023-05-05T17:03:42.159Z,36.75
2023-05-05T17:06:12.996Z,37.26
2023-05-05T17:08:42.117Z,37.59
2023-05-05T17:11:11.934Z,36.95
2023-05-05T17:13:41.266Z,37.82
2023-05-05T17:16:11.387Z,38.03
2023-05-05T17:18:40.435Z,38.76
2023-05-05T17:21:09.408Z,39.36
2023-05-05T17:23:38.544Z,40.13
2023-05-05T17:26:07.481Z,40.98
2023-05-05T17:28:36.795Z,40.87
2023-05-05T17:31:05.776Z,39.62
2023-05-05T17:33:36.172Z,40.44
2023-05-05T17:36:05.304Z,40.59
2023-05-05T17:38:34.401Z,40.66
2023-05-05T17:41:03.305Z,41.82
2023-05-05T17:43:32.317Z,41.60
2023-05-05T17:46:01.290Z,41.53
2023-05-05T17:48:30.594Z,41.76
2023-05-05T17:51:00.828Z,42.22
2023-05-05T17:53:29.855Z,42.52
2023-05-05T17:55:58.734Z,41.46
2023-05-05T17:58:27.877Z,41.38
2023-05-05T18:00:56.702Z,42.01
2023-05-05T18:03:26.214Z,42.86
2023-05-05T18:05:55.149Z,42.47
2023-05-05T18:08:25.672Z,43.49
2023-05-05T18:10:54.685Z,42.38
2023-05-05T18:13:23.703Z,42.15
2023-05-05T18:15:52.663Z,41.45
2023-05-05T18:18:22.208Z,41.35
2023-05-05T18:20:51.073Z,44.08
2023-05-05T18:23:21.443Z,42.75
2023-05-05T18:25:51.563Z,44.53
2023-05-05T18:28:20.920Z,44.66
2023-05-05T18:30:49.773Z,45.47
2023-05-05T18:33:18.927Z,44.76
2023-05-05T18:35:47.642Z,47.23
2023-05-05T18:38:16.978Z,47.05
2023-05-05T18:40:45.916Z,46.13
2023-05-05T18:43:16.426Z,46.25
2023-05-05T18:45:46.588Z,45.79
2023-05-05T18:48:16.508Z,47.70
2023-05-05T18:50:45.786Z,47.45
2023-05-05T18:53:16.651Z,48.02
2023-05-05T18:55:47.115Z,47.92
2023-05-05T18:58:17.660Z,48.27
2023-05-05T19:00:46.593Z,48.04
2023-05-05T19:03:15.644Z,46.14
2023-05-05T19:05:44.607Z,49.59
2023-05-05T19:08:13.670Z,46.55
2023-05-05T19:10:42.646Z,47.88
2023-05-05T19:13:11.880Z,46.16
2023-05-05T19:15:46.097Z,48.63
2023-05-05T19:18:18.508Z,48.72
2023-05-05T19:20:47.644Z,48.89
2023-05-05T19:23:17.133Z,48.10
2023-05-05T19:25:46.393Z,51.23
2023-05-05T19:28:16.214Z,49.69
2023-05-05T19:30:48.566Z,50.92
2023-05-05T19:33:18.141Z,47.78
2023-05-05T19:35:46.867Z,47.16
2023-05-05T19:38:16.378Z,50.32
2023-05-05T19:40:45.128Z,50.95
2023-05-05T19:43:15.182Z,48.40
2023-05-05T19:45:43.995Z,48.00
2023-05-05T19:48:16.225Z,50.67
2023-05-05T19:50:45.485Z,49.18
2023-05-05T19:53:14.657Z,52.59
2023-05-05T19:55:43.443Z,51.50
2023-05-05T19:58:12.872Z,49.29
2023-05-05T20:00:42.434Z,48.02
2023-05-05T20:03:13.752Z,52.26
2023-05-05T20:05:44.190Z,47.98
2023-05-05T20:08:13.449Z,49.33
2023-05-05T20:10:43.697Z,48.64
2023-05-05T20:13:16.798Z,49.86
2023-05-05T20:15:46.060Z,49.82
2023-05-05T20:18:15.390Z,51.00
2023-05-05T20:20:45.763Z,50.21
2023-05-05T20:23:14.965Z,48.08
2023-05-05T20:25:43.998Z,49.15
2023-05-05T20:28:13.224Z,51.58
2023-05-05T20:30:42.126Z,49.68
2023-05-05T20:33:11.369Z,48.57
2023-05-05T20:35:41.118Z,50.08
2023-05-05T20:38:11.835Z,51.83
2023-05-05T20:40:41.396Z,51.79
2023-05-05T20:43:12.779Z,48.95
2023-05-05T20:45:42.988Z,49.05
2023-05-05T20:48:12.176Z,50.56
2023-05-05T20:50:41.425Z,51.49
2023-05-05T20:53:13.841Z,49.94
2023-05-05T20:55:42.748Z,53.09
2023-05-05T20:58:11.768Z,53.13
2023-05-05T21:00:40.823Z,52.82
2023-05-05T21:03:11.647Z,54.32
2023-05-05T21:05:41.401Z,53.30
2023-05-05T21:08:11.110Z,52.46
2023-05-05T21:10:42.208Z,53.51
2023-05-05T21:13:12.083Z,51.98
2023-05-05T21:15:41.394Z,53.48
2023-05-05T21:18:10.568Z,53.86
2023-05-05T21:20:39.692Z,56.50
2023-05-05T21:23:08.770Z,53.14
2023-05-05T21:25:39.229Z,53.66
2023-05-05T21:28:11.059Z,52.25
2023-05-05T21:30:39.988Z,51.28
2023-05-05T21:33:09.352Z,54.29
2023-05-05T21:35:39.267Z,52.81
2023-05-05T21:38:08.345Z,55.94
2023-05-05T21:40:37.580Z,50.61
2023-05-05T21:43:07.401Z,50.46
2023-05-05T21:45:37.658Z,52.01
2023-05-05T21:48:07.112Z,52.54
2023-05-05T21:50:37.189Z,56.39
2023-05-05T21:53:06.384Z,53.36
2023-05-05T21:55:35.143Z,54.67
2023-05-05T21:58:04.193Z,51.40
2023-05-05T22:00:33.344Z,51.38
2023-05-05T22:03:04.047Z,54.21
2023-05-05T22:05:32.943Z,54.81
2023-05-05T22:08:01.948Z,53.88
2023-05-05T22:10:30.833Z,55.92
2023-05-05T22:12:59.991Z,52.30
2023-05-05T22:15:35.656Z,52.23
2023-05-05T22:18:13.584Z,52.06
2023-05-05T22:20:42.666Z,54.33
2023-05-05T22:23:11.786Z,51.76
2023-05-05T22:25:40.719Z,51.20
2023-05-05T22:28:09.738Z,52.41
2023-05-05T22:30:38.770Z,50.65
2023-05-05T22:33:08.074Z,49.95
2023-05-05T22:35:38.639Z,53.00
2023-05-05T22:38:07.893Z,52.76
2023-05-05T22:40:37.000Z,50.79
2023-05-05T22:43:06.229Z,49.44
2023-05-05T22:45:34.973Z,49.44
2023-05-05T22:48:04.296Z,49.49
2023-05-05T22:50:33.048Z,49.08
2023-05-05T22:53:03.708Z,48.90
2023-05-05T22:55:32.577Z,49.24
2023-05-05T22:58:01.635Z,48.41
2023-05-05T23:00:30.856Z,48.36
2023-05-05T23:02:59.941Z,48.15
2023-05-05T23:05:28.920Z,48.02
2023-05-05T23:08:00.045Z,47.86
2023-05-05T23:10:30.298Z,47.85
2023-05-05T23:12:59.573Z,47.67
2023-05-05T23:15:28.762Z,47.47
2023-05-05T23:17:58.065Z,47.53
2023-05-05T23:20:26.845Z,47.45
2023-05-05T23:22:56.304Z,47.38
2023-05-05T23:25:25.048Z,47.53
2023-05-05T23:27:55.609Z,47.46
2023-05-05T23:30:24.478Z,47.44
2023-05-05T23:32:54.365Z,47.61
2023-05-05T23:35:23.316Z,47.30
2023-05-05T23:37:52.349Z,47.61
2023-05-05T23:40:21.259Z,47.39
2023-05-05T23:42:50.364Z,47.35
2023-05-05T23:45:20.613Z,47.46
2023-05-05T23:47:49.910Z,47.33
2023-05-05T23:50:18.632Z,47.59
2023-05-05T23:52:47.832Z,48.56
2023-05-05T23:55:16.562Z,47.86
2023-05-05T23:57:45.770Z,48.28
